Time;durP1;ratioP1;P1;durP2;ratioP2;P2;SDS_P1;SDS_P2;PMS_P1;PMS_P2;Temp;Humidity;BMP_temperature;BMP_pressure;BME280_temperature;BME280_humidity;BME280_pressure;Samples;Min_cycle;Max_cycle;Signal;HPM_P1;HPM_P2
2021/08/30 00:01:42;;;;;;;16.33;14.23;;;;;;;18.77;74.92;100494.84;5022885;28;20061;-80
2021/08/30 00:04:09;;;;;;;16.85;14.48;;;;;;;18.74;75.08;100489.94;5024141;28;20057;-79
2021/08/30 00:06:41;;;;;;;22.48;14.82;;;;;;;18.72;75.43;100495.94;5021658;28;20057;-79
2021/08/30 00:09:08;;;;;;;18.42;14.63;;;;;;;18.73;75.16;100491.97;5022107;28;20053;-79
2021/08/30 00:11:37;;;;;;;18.65;14.65;;;;;;;18.72;75.32;100495.13;5021918;28;20054;-80
2021/08/30 00:14:05;;;;;;;19.52;15.02;;;;;;;18.72;75.03;100501.59;5022473;28;20042;-80
2021/08/30 00:16:33;;;;;;;17.85;15.23;;;;;;;18.75;75.23;100498.06;5018267;28;20042;-78
2021/08/30 00:19:00;;;;;;;20.80;15.73;;;;;;;18.72;75.24;100504.41;5020973;28;20037;-80
2021/08/30 00:21:27;;;;;;;20.42;15.70;;;;;;;18.80;74.92;100494.97;5026453;28;20060;-80
2021/08/30 00:23:55;;;;;;;20.20;15.73;;;;;;;18.81;74.94;100504.22;5021421;28;20046;-80
2021/08/30 00:26:26;;;;;;;18.73;16.15;;;;;;;18.82;74.74;100501.03;5021797;28;20049;-78
2021/08/30 00:28:55;;;;;;;20.58;16.48;;;;;;;18.87;74.59;100497.09;5024389;28;20069;-80
2021/08/30 00:31:25;;;;;;;;;;;;;;;18.70;75.03;100491.88;5025432;28;20054;-78
2021/08/30 00:33:55;;;;;;;18.63;15.15;;;;;;;18.70;75.32;100497.50;5022006;28;19921;-79
2021/08/30 00:36:25;;;;;;;22.88;17.90;;;;;;;18.60;75.63;100499.72;5020915;28;20054;-79
2021/08/30 00:38:54;;;;;;;21.83;16.65;;;;;;;18.71;75.36;100493.50;5026927;28;20058;-79
2021/08/30 00:41:23;;;;;;;22.45;18.35;;;;;;;18.77;75.22;100500.47;5023338;28;20049;-79
2021/08/30 00:43:50;;;;;;;23.83;19.42;;;;;;;18.79;74.95;100496.16;5022069;28;20068;-78
2021/08/30 00:46:20;;;;;;;21.67;18.65;;;;;;;18.76;75.09;100501.69;5025125;28;20053;-79
2021/08/30 00:48:50;;;;;;;20.83;18.25;;;;;;;18.76;75.45;100496.03;5021305;28;20046;-79
2021/08/30 00:51:23;;;;;;;23.00;19.42;;;;;;;18.72;75.24;100495.94;5005105;28;20049;-79
2021/08/30 00:53:57;;;;;;;23.05;19.35;;;;;;;18.66;75.23;100491.78;5020820;28;20054;-79
2021/08/30 00:56:24;;;;;;;23.42;19.67;;;;;;;18.66;75.40;100505.88;5020217;28;20395;-79
2021/08/30 00:58:52;;;;;;;23.75;18.88;;;;;;;18.67;75.44;100504.72;5020080;28;20116;-79
2021/08/30 01:01:21;;;;;;;25.05;19.33;;;;;;;18.62;75.72;100496.53;5019963;28;20050;-79
2021/08/30 01:03:49;;;;;;;22.52;19.80;;;;;;;18.60;75.65;100496.06;5021111;28;20056;-78
2021/08/30 01:06:36;;;;;;;23.65;20.35;;;;;;;18.55;75.82;100496.38;5020045;28;20073;-78
2021/08/30 01:09:12;;;;;;;24.08;19.60;;;;;;;18.52;76.33;100495.13;5015102;28;20045;-78
2021/08/30 01:11:44;;;;;;;23.02;20.15;;;;;;;18.56;75.84;100498.84;5019984;28;20079;-78
2021/08/30 01:14:17;;;;;;;23.92;19.27;;;;;;;18.51;76.14;100501.94;5015699;28;20056;-78
2021/08/30 01:16:47;;;;;;;23.27;19.20;;;;;;;18.52;76.07;100503.59;5017507;28;20060;-78
2021/08/30 01:19:21;;;;;;;23.60;19.52;;;;;;;18.54;75.96;100500.38;5015544;28;20058;-78
2021/08/30 01:21:49;;;;;;;23.58;18.05;;;;;;;18.52;75.93;100509.22;5015673;28;20057;-78
2021/08/30 01:24:20;;;;;;;23.65;19.25;;;;;;;18.54;75.67;100501.22;5015232;28;20054;-78
2021/08/30 01:26:52;;;;;;;22.17;17.95;;;;;;;18.53;75.51;100504.38;5016010;28;20069;-78
2021/08/30 01:29:28;;;;;;;22.17;18.15;;;;;;;18.52;75.26;100503.59;5013201;28;20065;-78
2021/08/30 01:32:03;;;;;;;26.10;19.67;;;;;;;18.54;75.12;100498.38;5015822;28;20058;-78
2021/08/30 01:34:34;;;;;;;23.90;18.38;;;;;;;18.48;75.59;100505.50;5014321;28;20062;-78
2021/08/30 01:37:02;;;;;;;24.83;19.50;;;;;;;18.44;75.55;100498.97;5012914;28;20604;-78
2021/08/30 01:39:31;;;;;;;23.85;18.60;;;;;;;18.43;75.49;100505.78;5014155;28;20523;-78
2021/08/30 01:41:59;;;;;;;22.98;18.42;;;;;;;18.28;76.25;100503.81;5015577;28;20060;-78
2021/08/30 01:44:28;;;;;;;24.50;18.70;;;;;;;18.39;75.55;100510.50;5015670;28;20065;-78
2021/08/30 01:46:57;;;;;;;22.53;18.67;;;;;;;18.35;75.73;100503.97;5016139;28;20065;-78
2021/08/30 01:49:26;;;;;;;21.95;18.27;;;;;;;18.39;75.50;100507.69;5016130;28;20053;-78
2021/08/30 01:51:57;;;;;;;22.55;18.15;;;;;;;18.34;75.59;100513.63;5013975;28;20062;-78
2021/08/30 01:54:25;;;;;;;23.55;18.55;;;;;;;18.28;75.89;100515.09;5015080;28;20058;-78
2021/08/30 01:56:55;;;;;;;21.90;18.17;;;;;;;18.28;76.03;100503.81;5013527;28;20065;-78
2021/08/30 02:02:10;;;;;;;21.88;18.20;;;;;;;18.25;76.00;100506.16;5021071;28;20513;-78
2021/08/30 02:04:38;;;;;;;22.40;18.13;;;;;;;18.28;75.62;100513.06;5016184;28;20057;-78
2021/08/30 02:07:07;;;;;;;21.55;16.58;;;;;;;18.29;75.57;100511.06;5015122;28;20050;-78
2021/08/30 02:09:34;;;;;;;20.90;17.58;;;;;;;18.28;75.40;100515.88;5018752;28;20419;-79
2021/08/30 02:12:02;;;;;;;20.00;16.75;;;;;;;18.26;75.49;100509.81;5015029;28;20053;-79
2021/08/30 02:14:29;;;;;;;20.70;17.33;;;;;;;18.25;75.67;100514.63;5012545;28;20054;-78
2021/08/30 02:17:00;;;;;;;21.58;17.25;;;;;;;18.24;75.33;100520.63;5014318;28;20511;-77
2021/08/30 02:19:35;;;;;;;21.17;17.00;;;;;;;18.23;75.61;100514.19;5013038;28;20046;-79
2021/08/30 02:22:07;;;;;;;21.65;17.63;;;;;;;18.23;75.77;100525.44;5014296;28;20057;-78
2021/08/30 02:24:42;;;;;;;23.73;17.25;;;;;;;18.28;75.56;100521.53;5014607;28;20061;-78
2021/08/30 02:27:15;;;;;;;21.13;17.55;;;;;;;18.26;75.23;100515.44;5014551;28;20061;-77
2021/08/30 02:29:48;;;;;;;19.08;16.60;;;;;;;18.22;75.50;100518.16;5014375;28;20049;-78
2021/08/30 02:32:17;;;;;;;20.98;16.45;;;;;;;18.22;75.13;100512.53;5014558;28;20537;-78
2021/08/30 02:34:49;;;;;;;20.55;17.27;;;;;;;18.21;75.21;100516.53;5016088;28;20380;-77
2021/08/30 02:37:17;;;;;;;20.63;16.52;;;;;;;18.19;75.17;100515.28;5014661;28;20064;-78
2021/08/30 02:39:49;;;;;;;19.55;16.65;;;;;;;18.15;75.17;100512.38;5013167;28;20054;-77
2021/08/30 02:42:18;;;;;;;24.13;17.88;;;;;;;18.15;75.54;100512.38;5012939;28;20057;-78
2021/08/30 02:44:51;;;;;;;19.52;16.77;;;;;;;18.15;75.22;100518.00;5018563;28;20045;-79
2021/08/30 02:47:20;;;;;;;21.73;16.40;;;;;;;18.19;75.06;100506.81;5019192;28;20066;-77
2021/08/30 02:49:48;;;;;;;20.38;16.42;;;;;;;18.16;75.20;100505.53;5019826;28;20421;-79
2021/08/30 02:52:18;;;;;;;20.85;16.38;;;;;;;18.14;75.22;100510.75;5018328;28;20068;-79
2021/08/30 02:54:49;;;;;;;23.08;17.50;;;;;;;18.14;75.31;100515.53;5020666;28;20072;-79
2021/08/30 02:57:18;;;;;;;22.33;17.75;;;;;;;18.10;75.34;100507.00;5020345;28;20065;-79
2021/08/30 02:59:50;;;;;;;21.38;17.13;;;;;;;18.14;75.39;100504.25;5020013;28;20052;-79
2021/08/30 03:02:21;;;;;;;21.50;16.63;;;;;;;18.07;75.49;100504.91;5020591;28;20061;-79
2021/08/30 03:04:49;;;;;;;22.02;16.65;;;;;;;18.06;75.38;100506.09;5021261;28;20483;-79
2021/08/30 03:07:19;;;;;;;21.23;16.55;;;;;;;18.11;74.84;100503.00;5022725;28;20062;-79
2021/08/30 03:09:49;;;;;;;18.52;15.90;;;;;;;18.12;74.83;100513.09;5020296;28;20061;-79
2021/08/30 03:12:18;;;;;;;18.90;16.58;;;;;;;18.02;75.60;100519.28;5023731;28;20054;-79
2021/08/30 03:14:47;;;;;;;20.40;16.65;;;;;;;18.03;75.43;100502.00;5023911;28;20050;-78
2021/08/30 03:17:15;;;;;;;22.77;17.15;;;;;;;17.91;75.70;100513.38;5018662;28;20059;-79
2021/08/30 03:19:47;;;;;;;22.35;16.45;;;;;;;18.09;75.06;100513.00;5023338;28;20056;-79
2021/08/30 03:22:17;;;;;;;20.58;15.93;;;;;;;18.08;74.72;100515.00;5023810;28;20061;-79
2021/08/30 03:24:50;;;;;;;19.50;16.33;;;;;;;18.09;74.90;100524.28;5026212;28;20057;-79
2021/08/30 03:27:18;;;;;;;20.45;15.85;;;;;;;18.10;74.98;100515.47;5025762;28;20053;-79
2021/08/30 03:29:46;;;;;;;22.35;17.30;;;;;;;18.10;74.70;100511.81;5022393;28;20050;-79
2021/08/30 03:32:16;;;;;;;21.33;17.38;;;;;;;18.13;74.73;100517.56;5024231;28;20045;-79
2021/08/30 03:34:44;;;;;;;;;;;;;;;18.08;74.81;100512.19;5022819;28;20045;-79
2021/08/30 03:37:13;;;;;;;21.95;17.20;;;;;;;18.17;74.73;100514.81;5022417;28;19921;-79
2021/08/30 03:39:41;;;;;;;23.87;17.03;;;;;;;18.15;74.32;100520.81;5022356;28;20065;-78
2021/08/30 03:42:11;;;;;;;23.07;16.93;;;;;;;18.15;74.75;100509.53;5019749;28;20485;-79
2021/08/30 03:44:40;;;;;;;18.48;16.42;;;;;;;18.20;74.00;100508.44;5023400;28;20049;-79
2021/08/30 03:47:08;;;;;;;20.42;16.55;;;;;;;18.14;73.95;100513.56;5024241;28;20057;-79
2021/08/30 03:49:37;;;;;;;20.10;17.27;;;;;;;18.10;74.44;100512.66;5025223;28;20042;-79
2021/08/30 03:52:06;;;;;;;23.27;17.70;;;;;;;18.09;74.49;100511.00;5022154;28;20045;-78
2021/08/30 03:54:36;;;;;;;20.55;16.85;;;;;;;18.04;74.78;100511.28;5024085;28;20046;-78
2021/08/30 03:57:05;;;;;;;22.77;17.17;;;;;;;18.07;74.88;100524.63;5022224;28;20053;-79
2021/08/30 03:59:36;;;;;;;20.88;17.48;;;;;;;18.12;74.75;100507.47;5021366;28;20062;-79
2021/08/30 04:02:05;;;;;;;23.25;17.17;;;;;;;18.06;75.00;100506.09;5024628;28;20050;-79
2021/08/30 04:04:33;;;;;;;21.85;17.42;;;;;;;18.11;74.68;100505.81;5020176;28;20042;-79
2021/08/30 04:07:04;;;;;;;18.98;16.98;;;;;;;18.18;74.17;100505.97;5017855;28;20042;-79
2021/08/30 04:09:32;;;;;;;25.45;16.98;;;;;;;18.18;73.90;100517.25;5025959;28;20058;-79
2021/08/30 04:12:00;;;;;;;20.88;17.23;;;;;;;18.20;73.94;100505.63;5024367;28;20049;-79
2021/08/30 04:14:28;;;;;;;22.05;17.80;;;;;;;18.21;73.82;100505.25;5022742;28;20069;-79
2021/08/30 04:16:56;;;;;;;19.92;16.65;;;;;;;18.22;73.99;100504.06;5022204;28;20125;-79
2021/08/30 04:19:24;;;;;;;20.83;16.25;;;;;;;18.18;73.95;100505.97;5022557;28;20073;-79
2021/08/30 04:21:51;;;;;;;22.02;17.63;;;;;;;18.22;73.89;100517.34;5023507;28;20045;-79
2021/08/30 04:24:19;;;;;;;20.15;17.63;;;;;;;18.23;73.64;100508.53;5018509;28;20048;-79
2021/08/30 04:26:47;;;;;;;22.67;18.27;;;;;;;18.19;73.67;100507.63;5020635;28;20064;-79
2021/08/30 04:29:14;;;;;;;20.45;18.30;;;;;;;18.21;73.68;100513.72;5019445;28;20126;-79
2021/08/30 04:31:43;;;;;;;20.95;18.73;;;;;;;18.24;73.66;100515.78;5020962;28;20045;-77
2021/08/30 04:34:12;;;;;;;25.08;20.10;;;;;;;18.23;73.54;100522.63;5021448;28;20072;-79
2021/08/30 04:36:40;;;;;;;23.30;19.73;;;;;;;18.23;73.71;100513.38;5020367;28;20505;-79
2021/08/30 04:39:07;;;;;;;25.05;20.30;;;;;;;18.25;73.90;100522.28;5025031;28;20053;-79
2021/08/30 04:41:35;;;;;;;25.17;20.95;;;;;;;18.10;74.03;100532.38;5021910;28;20050;-79
2021/08/30 04:44:02;;;;;;;25.45;20.98;;;;;;;18.22;73.32;100517.34;5024025;28;20057;-79
2021/08/30 04:46:30;;;;;;;24.70;20.55;;;;;;;18.17;73.58;100524.09;5023003;28;20669;-79
2021/08/30 04:48:57;;;;;;;28.17;20.00;;;;;;;18.20;73.70;100523.34;5021293;28;20072;-79
2021/08/30 04:51:26;;;;;;;24.23;20.75;;;;;;;18.22;73.35;100529.44;5024897;28;20057;-79
2021/08/30 04:53:53;;;;;;;26.08;20.73;;;;;;;18.15;73.68;100534.91;5021207;28;20068;-79
2021/08/30 04:56:21;;;;;;;26.63;21.85;;;;;;;18.21;73.69;100533.47;5018555;28;20057;-78
2021/08/30 04:58:48;;;;;;;26.05;22.73;;;;;;;18.15;73.89;100534.91;5018707;28;20065;-79
2021/08/30 05:01:16;;;;;;;24.45;21.10;;;;;;;18.19;73.87;100541.47;5020418;28;20051;-79
2021/08/30 05:03:44;;;;;;;25.55;20.83;;;;;;;18.09;73.98;100539.19;5020240;28;20042;-79
2021/08/30 05:06:11;;;;;;;24.38;21.10;;;;;;;18.17;74.16;100537.38;5020289;28;20061;-79
2021/08/30 05:08:40;;;;;;;26.17;21.58;;;;;;;18.18;73.94;100539.81;5020568;28;20054;-79
2021/08/30 05:11:07;;;;;;;26.20;20.50;;;;;;;18.21;73.79;100544.75;5018859;28;20061;-79
2021/08/30 05:13:35;;;;;;;25.25;20.95;;;;;;;18.23;73.50;100542.38;5022925;28;20049;-79
2021/08/30 05:16:03;;;;;;;28.48;22.02;;;;;;;18.13;73.71;100545.75;5017446;28;20053;-77
2021/08/30 05:18:30;;;;;;;27.13;22.00;;;;;;;18.21;73.75;100543.94;5021047;28;20061;-79
2021/08/30 05:20:58;;;;;;;23.77;20.27;;;;;;;18.19;73.49;100546.28;5021481;28;20042;-79
2021/08/30 05:23:25;;;;;;;23.17;20.30;;;;;;;18.19;73.78;100552.75;5019788;28;20076;-79
2021/08/30 05:25:54;;;;;;;25.50;20.52;;;;;;;18.26;73.47;100552.09;5021236;28;20054;-79
2021/08/30 05:28:23;;;;;;;25.08;20.20;;;;;;;18.22;73.70;100556.81;5020233;28;20073;-79
2021/08/30 05:30:50;;;;;;;23.33;19.35;;;;;;;18.28;73.27;100557.38;5019943;28;20054;-79
2021/08/30 05:33:17;;;;;;;24.10;19.33;;;;;;;18.25;73.45;100556.13;5020195;28;20069;-77
2021/08/30 05:35:45;;;;;;;25.25;21.05;;;;;;;18.24;73.77;100555.28;5021391;28;20410;-77
2021/08/30 05:38:12;;;;;;;24.42;20.50;;;;;;;18.20;74.03;100557.19;5021755;28;20049;-79
2021/08/30 05:40:40;;;;;;;26.75;21.13;;;;;;;18.26;73.65;100558.53;5017729;28;20042;-77
2021/08/30 05:43:09;;;;;;;27.10;20.75;;;;;;;18.24;73.53;100549.63;5020880;28;20056;-79
2021/08/30 05:45:39;;;;;;;23.35;19.60;;;;;;;18.18;73.75;100556.72;5021507;28;20068;-79
2021/08/30 05:48:07;;;;;;;26.88;20.73;;;;;;;18.18;73.95;100562.38;5019586;28;20049;-79
2021/08/30 05:50:35;;;;;;;25.35;20.90;;;;;;;18.20;73.43;100565.63;5023401;28;20050;-79
2021/08/30 05:53:02;;;;;;;25.20;21.17;;;;;;;18.13;74.33;100564.66;5023311;28;20057;-79
2021/08/30 05:55:32;;;;;;;25.15;20.80;;;;;;;18.19;73.87;100566.03;5016440;28;20057;-78
2021/08/30 05:57:59;;;;;;;27.80;22.23;;;;;;;18.19;73.77;100569.66;5015279;28;20046;-79
2021/08/30 06:00:28;;;;;;;29.77;21.95;;;;;;;18.19;73.92;100571.66;4998736;28;20061;-78
2021/08/30 06:02:58;;;;;;;27.30;22.63;;;;;;;18.15;74.13;100563.09;5000424;28;20058;-79
2021/08/30 06:05:26;;;;;;;27.33;22.75;;;;;;;18.13;74.11;100559.03;4997461;28;20050;-78
2021/08/30 06:07:53;;;;;;;27.77;21.58;;;;;;;18.15;74.38;100567.94;5002770;28;20050;-79
2021/08/30 06:10:21;;;;;;;27.25;22.05;;;;;;;18.18;74.12;100562.38;4998419;28;20058;-79
2021/08/30 06:12:48;;;;;;;27.13;21.15;;;;;;;18.12;74.93;100569.50;5000987;28;20058;-78
2021/08/30 06:15:16;;;;;;;25.45;20.80;;;;;;;18.18;76.34;100565.19;4994612;28;20079;-78
2021/08/30 06:17:44;;;;;;;26.98;21.48;;;;;;;18.13;75.84;100568.28;4993451;28;20062;-78
2021/08/30 06:20:12;;;;;;;29.83;22.90;;;;;;;17.88;77.01;100562.00;4992604;28;20546;-79
2021/08/30 06:22:40;;;;;;;31.13;23.30;;;;;;;17.99;76.38;100567.91;4991976;28;20062;-78
2021/08/30 06:25:08;;;;;;;28.08;21.88;;;;;;;18.04;76.06;100565.66;4994451;28;20053;-79
2021/08/30 06:27:38;;;;;;;25.10;20.70;;;;;;;18.08;75.39;100565.75;4998729;28;20045;-80
2021/08/30 06:30:06;;;;;;;27.10;21.00;;;;;;;18.24;74.99;100558.09;4997479;28;20058;-79
2021/08/30 06:32:34;;;;;;;25.05;20.13;;;;;;;18.32;74.83;100566.75;4997006;28;20395;-79
2021/08/30 06:35:03;;;;;;;25.98;20.70;;;;;;;18.25;75.28;100561.75;4995143;28;20050;-78
2021/08/30 06:37:30;;;;;;;28.60;20.85;;;;;;;18.30;75.29;100571.94;4994156;28;20084;-78
2021/08/30 06:39:58;;;;;;;29.08;21.10;;;;;;;18.37;75.03;100572.09;4996187;28;20046;-79
2021/08/30 06:42:27;;;;;;;29.23;21.65;;;;;;;18.42;74.87;100566.19;4996711;28;20050;-78
2021/08/30 06:44:55;;;;;;;28.58;22.33;;;;;;;18.44;74.77;100569.47;4995976;28;20062;-78
2021/08/30 06:47:22;;;;;;;32.53;24.55;;;;;;;18.43;74.72;100567.81;4995480;28;20063;-78
2021/08/30 06:49:52;;;;;;;30.98;24.70;;;;;;;18.41;74.70;100587.91;4995226;28;20065;-80
2021/08/30 06:52:21;;;;;;;29.67;23.75;;;;;;;18.45;74.46;100576.72;4997019;28;20050;-78
2021/08/30 06:54:50;;;;;;;31.65;23.42;;;;;;;18.36;74.83;100582.56;5001533;28;20062;-81
2021/08/30 06:57:17;;;;;;;28.75;22.67;;;;;;;18.53;74.52;100587.00;5007750;28;20053;-81
2021/08/30 06:59:45;;;;;;;32.28;23.70;;;;;;;18.55;74.52;100569.72;5020532;28;20045;-81
2021/08/30 07:02:14;;;;;;;27.95;22.65;;;;;;;18.55;74.02;100581.81;5018216;28;20053;-81
2021/08/30 07:04:42;;;;;;;29.23;22.40;;;;;;;18.60;73.84;100570.25;5018732;28;20050;-81
2021/08/30 07:07:09;;;;;;;26.60;22.17;;;;;;;18.62;74.15;100581.16;5027968;28;20064;-81
2021/08/30 07:09:38;;;;;;;29.67;23.35;;;;;;;18.60;74.05;100578.69;5021304;28;20069;-82
2021/08/30 07:12:06;;;;;;;31.30;23.58;;;;;;;18.64;73.74;100573.97;5025810;28;20056;-81
2021/08/30 07:14:34;;;;;;;28.17;22.98;;;;;;;18.48;74.29;100570.38;5027629;28;20057;-83
2021/08/30 07:17:01;;;;;;;30.48;22.25;;;;;;;18.70;73.54;100571.69;5022408;28;20054;-78
2021/08/30 07:19:28;;;;;;;30.98;22.55;;;;;;;18.60;73.50;100569.44;5020889;28;20057;-80
2021/08/30 07:21:56;;;;;;;28.58;23.60;;;;;;;18.83;73.27;100569.59;5019945;28;20042;-80
2021/08/30 07:24:23;;;;;;;26.80;21.70;;;;;;;18.78;73.41;100569.84;5018320;28;20064;-80
2021/08/30 07:26:54;;;;;;;26.00;22.23;;;;;;;18.89;73.22;100573.75;5021160;28;20045;-81
2021/08/30 07:29:21;;;;;;;26.42;21.73;;;;;;;19.24;72.46;100572.91;5018330;28;20050;-81
2021/08/30 07:31:49;;;;;;;26.45;21.42;;;;;;;19.41;71.57;100569.63;5020597;28;20482;-79
2021/08/30 07:34:16;;;;;;;25.98;21.30;;;;;;;19.72;71.02;100569.84;5020283;28;20050;-80
2021/08/30 07:36:44;;;;;;;27.83;21.05;;;;;;;19.98;69.69;100564.28;5020613;28;20421;-80
2021/08/30 07:39:11;;;;;;;30.13;22.25;;;;;;;20.17;68.95;100569.06;5020212;28;20045;-79
2021/08/30 07:41:39;;;;;;;28.38;22.95;;;;;;;20.38;68.22;100570.63;5009768;28;20065;-79
2021/08/30 07:44:07;;;;;;;26.08;20.77;;;;;;;20.46;67.63;100566.72;5005497;28;20054;-80
2021/08/30 07:46:35;;;;;;;26.00;22.02;;;;;;;20.55;67.04;100569.28;5021063;28;20053;-80
2021/08/30 07:49:03;;;;;;;26.70;21.88;;;;;;;20.27;67.43;100574.09;5024464;28;20056;-80
2021/08/30 07:51:31;;;;;;;23.40;20.70;;;;;;;20.42;67.29;100577.16;5029684;28;20054;-81
2021/08/30 07:53:58;;;;;;;23.55;20.17;;;;;;;20.53;66.66;100580.16;5020489;28;20104;-81
2021/08/30 07:56:25;;;;;;;28.10;20.58;;;;;;;20.46;66.78;100580.88;5021356;28;20057;-81
2021/08/30 07:58:53;;;;;;;28.20;20.42;;;;;;;20.46;66.40;100590.16;5023941;28;20057;-81
2021/08/30 08:01:22;;;;;;;22.55;20.15;;;;;;;20.36;66.96;100590.00;5024915;28;20056;-81
2021/08/30 08:03:49;;;;;;;27.10;20.27;;;;;;;20.45;66.83;100590.53;5022629;28;20062;-80
2021/08/30 08:06:23;;;;;;;23.55;20.15;;;;;;;20.56;65.91;100597.22;5018671;28;20049;-83
2021/08/30 08:08:50;;;;;;;22.35;19.50;;;;;;;20.50;66.16;100606.41;5022688;28;20062;-81
2021/08/30 08:11:17;;;;;;;22.25;19.42;;;;;;;20.60;66.16;100603.78;5022231;28;20054;-81
2021/08/30 08:13:45;;;;;;;22.38;19.10;;;;;;;20.90;64.64;100597.34;5023956;28;20061;-79
2021/08/30 08:16:12;;;;;;;20.55;17.77;;;;;;;21.15;64.35;100599.72;5019778;28;20054;-80
2021/08/30 08:18:41;;;;;;;21.08;18.63;;;;;;;21.40;63.11;100600.88;5017835;28;20379;-80
2021/08/30 08:21:09;;;;;;;21.55;18.80;;;;;;;21.52;63.19;100599.81;5022549;28;20057;-80
2021/08/30 08:23:37;;;;;;;20.98;17.48;;;;;;;21.51;62.94;100594.56;5025227;28;20050;-79
2021/08/30 08:26:05;;;;;;;20.88;17.88;;;;;;;21.42;62.21;100603.34;5024731;28;20058;-79
2021/08/30 08:28:32;;;;;;;20.85;18.52;;;;;;;21.13;63.25;100604.97;5021019;28;20500;-82
2021/08/30 08:30:59;;;;;;;23.58;18.83;;;;;;;21.30;63.14;100607.22;5021535;28;20060;-81
2021/08/30 08:33:27;;;;;;;19.77;17.67;;;;;;;21.38;63.00;100608.13;5041169;28;20057;-79
2021/08/30 08:36:01;;;;;;;19.15;17.08;;;;;;;21.44;61.95;100600.94;5026091;28;20376;-79
2021/08/30 08:38:28;;;;;;;19.05;16.90;;;;;;;21.51;61.45;100591.72;5021415;28;20118;-81
2021/08/30 08:40:55;;;;;;;20.58;17.45;;;;;;;21.54;62.17;100594.56;5018750;28;20054;-79
2021/08/30 08:43:23;;;;;;;21.15;17.98;;;;;;;21.32;63.17;100607.66;5018576;28;20053;-79
2021/08/30 08:45:52;;;;;;;19.45;17.13;;;;;;;21.13;64.03;100607.78;5020268;28;20396;-81
2021/08/30 08:48:22;;;;;;;20.08;17.98;;;;;;;21.04;63.92;100610.88;5020305;28;20057;-80
2021/08/30 08:50:49;;;;;;;20.00;17.83;;;;;;;22.21;61.16;100610.69;5020404;28;20062;-79
2021/08/30 08:53:18;;;;;;;20.50;16.25;;;;;;;25.15;53.18;100601.63;5020544;28;20053;-80
2021/08/30 08:55:45;;;;;;;16.63;14.73;;;;;;;27.46;47.26;100583.22;5008790;28;20058;-79
2021/08/30 08:58:15;;;;;;;16.35;13.30;;;;;;;28.96;43.52;100593.63;5001674;28;20058;-81
2021/08/30 09:01:02;;;;;;;15.20;13.60;;;;;;;29.59;41.16;100586.22;5006490;28;20113;-82
2021/08/30 09:03:30;;;;;;;15.30;13.70;;;;;;;31.50;37.18;100572.38;5008350;28;20065;-79
2021/08/30 09:06:05;;;;;;;15.82;13.68;;;;;;;31.34;37.42;100581.84;5025493;28;20050;-80
2021/08/30 09:08:40;;;;;;;15.00;13.32;;;;;;;32.98;34.00;100577.00;5022312;28;20050;-81
2021/08/30 09:11:15;;;;;;;13.20;11.90;;;;;;;32.72;33.24;100577.09;5021317;28;20415;-79
2021/08/30 09:13:50;;;;;;;13.88;12.50;;;;;;;32.32;33.90;100571.84;5022274;28;20058;-79
2021/08/30 09:16:19;;;;;;;13.77;12.40;;;;;;;31.65;34.94;100584.25;5020206;28;20054;-79
2021/08/30 09:18:46;;;;;;;13.18;11.93;;;;;;;30.80;36.73;100578.81;5014460;28;20048;-78
2021/08/30 09:21:16;;;;;;;13.55;12.25;;;;;;;29.57;38.13;100594.44;5014588;28;20050;-81
2021/08/30 09:23:47;;;;;;;12.98;11.80;;;;;;;28.69;39.17;100591.63;5020669;28;20052;-78
2021/08/30 09:26:18;;;;;;;13.23;11.93;;;;;;;27.93;40.59;100588.34;5020129;28;20057;-78
2021/08/30 09:28:51;;;;;;;14.35;12.60;;;;;;;26.99;43.14;100590.72;5017993;28;20482;-79
2021/08/30 09:31:19;;;;;;;15.00;13.40;;;;;;;26.40;44.37;100589.59;5016774;28;20058;-79
2021/08/30 09:33:48;;;;;;;14.75;13.32;;;;;;;25.84;45.70;100595.25;5023108;28;20041;-77
2021/08/30 09:36:16;;;;;;;14.57;13.15;;;;;;;25.44;47.50;100597.50;5017686;28;20046;-79
2021/08/30 09:38:52;;;;;;;16.27;13.33;;;;;;;25.54;47.69;100595.03;5007637;28;20062;-79
2021/08/30 09:41:20;;;;;;;14.80;13.30;;;;;;;25.05;48.92;100598.41;5034459;28;20076;-78
2021/08/30 09:43:47;;;;;;;14.85;13.35;;;;;;;24.98;48.83;100604.13;5023084;28;20049;-77
2021/08/30 09:46:15;;;;;;;15.13;13.15;;;;;;;25.38;49.48;100601.19;5017236;28;20054;-78
2021/08/30 09:48:45;;;;;;;15.23;13.73;;;;;;;26.31;46.38;100595.78;5021004;28;20060;-78
2021/08/30 09:51:16;;;;;;;14.98;12.98;;;;;;;26.56;45.67;100596.81;5019464;28;20057;-79
2021/08/30 09:53:45;;;;;;;15.25;13.38;;;;;;;26.79;45.23;100594.16;5019374;28;20057;-79
2021/08/30 09:56:13;;;;;;;16.17;12.57;;;;;;;28.26;42.11;100582.94;5017265;28;20065;-79
2021/08/30 09:58:44;;;;;;;12.90;11.55;;;;;;;28.08;40.86;100589.75;5021600;28;20495;-78
2021/08/30 10:01:12;;;;;;;12.88;11.13;;;;;;;29.31;39.93;100582.69;5024957;28;20066;-79
2021/08/30 10:03:40;;;;;;;11.47;10.27;;;;;;;30.41;36.58;100574.91;5040833;28;20072;-79
2021/08/30 10:06:09;;;;;;;10.80;9.70;;;;;;;29.83;36.38;100579.13;5021812;28;20053;-79
2021/08/30 10:08:40;;;;;;;11.13;10.07;;;;;;;29.28;37.37;100584.41;5019106;28;20503;-80
2021/08/30 10:11:08;;;;;;;12.13;10.50;;;;;;;28.93;38.51;100580.94;5009921;28;20467;-79
2021/08/30 10:13:36;;;;;;;11.82;10.52;;;;;;;28.56;39.47;100590.66;5008907;28;20072;-78
2021/08/30 10:16:05;;;;;;;11.85;10.70;;;;;;;28.34;40.29;100585.22;5018564;28;20057;-79
2021/08/30 10:18:32;;;;;;;13.45;11.35;;;;;;;27.54;42.37;100589.66;5018462;28;20059;-79
2021/08/30 10:20:59;;;;;;;14.70;11.63;;;;;;;27.03;43.52;100582.91;5003828;28;20061;-79
2021/08/30 10:23:36;;;;;;;13.35;11.95;;;;;;;26.43;44.42;100580.19;5017959;28;20054;-78
2021/08/30 10:26:13;;;;;;;12.95;11.65;;;;;;;25.74;46.08;100579.00;5037188;28;20402;-79
2021/08/30 10:28:44;;;;;;;14.10;12.43;;;;;;;25.14;47.66;100574.38;5038066;28;20410;-78
2021/08/30 10:31:17;;;;;;;14.38;12.88;;;;;;;24.63;49.41;100585.88;5019453;28;20054;-78
2021/08/30 10:33:53;;;;;;;16.15;13.10;;;;;;;23.83;51.25;100586.16;5007480;28;20054;-81
2021/08/30 10:36:26;;;;;;;14.02;12.70;;;;;;;23.86;51.06;100591.06;5020527;28;20064;-79
2021/08/30 10:39:02;;;;;;;13.73;12.30;;;;;;;23.55;51.86;100584.03;5016988;28;20057;-77
2021/08/30 10:41:35;;;;;;;14.43;12.27;;;;;;;23.40;52.29;100586.00;5013442;28;20049;-78
2021/08/30 10:44:10;;;;;;;12.68;11.38;;;;;;;23.55;52.49;100581.19;5014399;28;20054;-77
2021/08/30 10:46:41;;;;;;;13.75;12.35;;;;;;;23.99;52.05;100591.50;5013667;28;20057;-77
2021/08/30 10:49:11;;;;;;;13.65;11.88;;;;;;;24.63;50.71;100585.03;5017274;28;20058;-77
2021/08/30 10:51:40;;;;;;;15.98;11.82;;;;;;;25.12;49.77;100589.84;5024006;28;20060;-78
2021/08/30 10:54:08;;;;;;;;;;;;;;;26.59;46.27;100585.38;5001693;28;20057;-79
2021/08/30 10:56:37;;;;;;;10.88;9.88;;;;;;;26.95;43.14;100576.44;5012959;28;19928;-80
2021/08/30 10:59:07;;;;;;;11.07;9.93;;;;;;;27.38;41.66;100586.59;4996318;28;20062;-79
2021/08/30 11:01:36;;;;;;;10.43;9.43;;;;;;;27.90;41.25;100572.81;5005818;28;20062;-79
2021/08/30 11:04:04;;;;;;;10.15;9.15;;;;;;;28.03;40.94;100586.56;4997269;28;20066;-77
2021/08/30 11:06:31;;;;;;;10.80;9.70;;;;;;;27.64;41.75;100576.47;5011947;28;20050;-78
2021/08/30 11:08:59;;;;;;;10.25;9.18;;;;;;;27.09;42.39;100575.50;5002436;28;20046;-79
2021/08/30 11:11:28;;;;;;;11.85;10.15;;;;;;;26.13;44.76;100589.41;5008892;28;20394;-79
2021/08/30 11:14:06;;;;;;;11.40;10.30;;;;;;;25.76;45.67;100576.53;5006603;28;20379;-79
2021/08/30 11:16:34;;;;;;;11.45;9.85;;;;;;;25.65;46.00;100584.38;5015376;28;20418;-79
2021/08/30 11:19:04;;;;;;;12.52;10.45;;;;;;;26.48;44.05;100585.44;5036651;28;20499;-78
2021/08/30 11:21:36;;;;;;;9.82;8.82;;;;;;;28.31;39.79;100580.38;5016530;28;20376;-79